sensor_id;sensor_type;location;lat;lon;timestamp;P1;durP1;ratioP1;P2;durP2;ratioP2
27015;SDS011;14557;0.000;0.000;2022-08-21T00:01:34;5.10;;;1.20;;
27015;SDS011;14557;0.000;0.000;2022-08-21T00:04:04;4.72;;;1.33;;
27015;SDS011;14557;0.000;0.000;2022-08-21T00:06:31;3.17;;;1.15;;
27015;SDS011;14557;0.000;0.000;2022-08-21T00:08:58;3.20;;;0.80;;
27015;SDS011;14557;0.000;0.000;2022-08-21T00:11:25;2.65;;;1.02;;
27015;SDS011;14557;0.000;0.000;2022-08-21T00:13:52;3.45;;;1.05;;
27015;SDS011;14557;0.000;0.000;2022-08-21T00:18:45;2.10;;;0.88;;
27015;SDS011;14557;0.000;0.000;2022-08-21T00:21:11;3.35;;;0.95;;
27015;SDS011;14557;0.000;0.000;2022-08-21T00:23:38;2.95;;;0.82;;
27015;SDS011;14557;0.000;0.000;2022-08-21T00:26:04;5.05;;;1.17;;
27015;SDS011;14557;0.000;0.000;2022-08-21T00:28:31;3.08;;;0.68;;
27015;SDS011;14557;0.000;0.000;2022-08-21T00:30:57;2.50;;;0.82;;
27015;SDS011;14557;0.000;0.000;2022-08-21T00:33:24;3.77;;;1.07;;
27015;SDS011;14557;0.000;0.000;2022-08-21T00:35:51;1.48;;;0.82;;
27015;SDS011;14557;0.000;0.000;2022-08-21T00:38:17;3.20;;;0.95;;
27015;SDS011;14557;0.000;0.000;2022-08-21T00:40:45;4.28;;;1.00;;
27015;SDS011;14557;0.000;0.000;2022-08-21T00:43:15;3.08;;;1.15;;
27015;SDS011;14557;0.000;0.000;2022-08-21T00:45:42;3.15;;;0.82;;
27015;SDS011;14557;0.000;0.000;2022-08-21T00:48:09;3.63;;;0.80;;
27015;SDS011;14557;0.000;0.000;2022-08-21T00:50:35;2.72;;;0.73;;
27015;SDS011;14557;0.000;0.000;2022-08-21T00:53:05;3.10;;;0.82;;
27015;SDS011;14557;0.000;0.000;2022-08-21T00:55:33;4.20;;;1.38;;
27015;SDS011;14557;0.000;0.000;2022-08-21T00:58:01;2.78;;;0.85;;
27015;SDS011;14557;0.000;0.000;2022-08-21T01:00:31;2.60;;;0.80;;
27015;SDS011;14557;0.000;0.000;2022-08-21T01:03:01;2.20;;;0.75;;
27015;SDS011;14557;0.000;0.000;2022-08-21T01:05:30;2.75;;;0.80;;
27015;SDS011;14557;0.000;0.000;2022-08-21T01:07:57;3.17;;;0.85;;
27015;SDS011;14557;0.000;0.000;2022-08-21T01:10:23;3.33;;;1.17;;
27015;SDS011;14557;0.000;0.000;2022-08-21T01:12:50;1.88;;;0.60;;
27015;SDS011;14557;0.000;0.000;2022-08-21T01:15:20;3.90;;;0.90;;
27015;SDS011;14557;0.000;0.000;2022-08-21T01:17:49;3.13;;;0.93;;
27015;SDS011;14557;0.000;0.000;2022-08-21T01:20:16;2.27;;;0.90;;
27015;SDS011;14557;0.000;0.000;2022-08-21T01:22:42;1.73;;;0.95;;
27015;SDS011;14557;0.000;0.000;2022-08-21T01:25:08;3.00;;;0.73;;
27015;SDS011;14557;0.000;0.000;2022-08-21T01:27:36;2.78;;;0.75;;
27015;SDS011;14557;0.000;0.000;2022-08-21T01:30:10;3.10;;;0.80;;
27015;SDS011;14557;0.000;0.000;2022-08-21T01:32:43;2.15;;;0.70;;
27015;SDS011;14557;0.000;0.000;2022-08-21T01:35:11;2.88;;;0.85;;
27015;SDS011;14557;0.000;0.000;2022-08-21T01:37:40;1.90;;;0.77;;
27015;SDS011;14557;0.000;0.000;2022-08-21T01:40:07;2.75;;;0.70;;
27015;SDS011;14557;0.000;0.000;2022-08-21T01:42:33;2.50;;;0.80;;
27015;SDS011;14557;0.000;0.000;2022-08-21T01:44:59;2.35;;;0.68;;
27015;SDS011;14557;0.000;0.000;2022-08-21T01:47:25;1.55;;;0.65;;
27015;SDS011;14557;0.000;0.000;2022-08-21T01:49:53;2.05;;;0.80;;
27015;SDS011;14557;0.000;0.000;2022-08-21T01:52:18;2.83;;;0.60;;
27015;SDS011;14557;0.000;0.000;2022-08-21T01:54:44;2.70;;;0.82;;
27015;SDS011;14557;0.000;0.000;2022-08-21T01:57:10;2.22;;;0.77;;
27015;SDS011;14557;0.000;0.000;2022-08-21T01:59:37;2.22;;;0.60;;
27015;SDS011;14557;0.000;0.000;2022-08-21T02:02:04;3.33;;;0.70;;
27015;SDS011;14557;0.000;0.000;2022-08-21T02:04:31;4.03;;;0.85;;
27015;SDS011;14557;0.000;0.000;2022-08-21T02:06:57;1.90;;;0.70;;
27015;SDS011;14557;0.000;0.000;2022-08-21T02:09:23;2.28;;;0.90;;
27015;SDS011;14557;0.000;0.000;2022-08-21T02:11:49;3.08;;;0.85;;
27015;SDS011;14557;0.000;0.000;2022-08-21T02:14:16;2.47;;;0.88;;
27015;SDS011;14557;0.000;0.000;2022-08-21T02:16:43;2.40;;;0.63;;
27015;SDS011;14557;0.000;0.000;2022-08-21T02:19:10;2.47;;;0.80;;
27015;SDS011;14557;0.000;0.000;2022-08-21T02:21:37;2.97;;;1.20;;
27015;SDS011;14557;0.000;0.000;2022-08-21T02:24:04;2.78;;;1.02;;
27015;SDS011;14557;0.000;0.000;2022-08-21T02:26:30;3.23;;;0.90;;
27015;SDS011;14557;0.000;0.000;2022-08-21T02:28:55;2.92;;;0.70;;
27015;SDS011;14557;0.000;0.000;2022-08-21T02:31:21;2.75;;;0.80;;
27015;SDS011;14557;0.000;0.000;2022-08-21T02:33:47;3.17;;;0.90;;
27015;SDS011;14557;0.000;0.000;2022-08-21T02:36:13;3.20;;;0.90;;
27015;SDS011;14557;0.000;0.000;2022-08-21T02:38:40;3.38;;;0.90;;
27015;SDS011;14557;0.000;0.000;2022-08-21T02:43:34;2.28;;;0.90;;
27015;SDS011;14557;0.000;0.000;2022-08-21T02:46:01;2.95;;;0.90;;
27015;SDS011;14557;0.000;0.000;2022-08-21T02:48:29;3.40;;;0.82;;
27015;SDS011;14557;0.000;0.000;2022-08-21T02:50:58;2.47;;;0.70;;
27015;SDS011;14557;0.000;0.000;2022-08-21T02:53:30;2.63;;;0.73;;
27015;SDS011;14557;0.000;0.000;2022-08-21T02:55:58;2.25;;;0.85;;
27015;SDS011;14557;0.000;0.000;2022-08-21T03:00:52;2.55;;;1.15;;
27015;SDS011;14557;0.000;0.000;2022-08-21T03:03:18;2.00;;;0.60;;
27015;SDS011;14557;0.000;0.000;2022-08-21T03:08:12;2.55;;;0.75;;
27015;SDS011;14557;0.000;0.000;2022-08-21T03:10:41;2.53;;;0.70;;
27015;SDS011;14557;0.000;0.000;2022-08-21T03:13:09;3.70;;;0.93;;
27015;SDS011;14557;0.000;0.000;2022-08-21T03:15:35;2.47;;;0.90;;
27015;SDS011;14557;0.000;0.000;2022-08-21T03:18:02;3.85;;;0.70;;
27015;SDS011;14557;0.000;0.000;2022-08-21T03:20:30;2.28;;;0.73;;
27015;SDS011;14557;0.000;0.000;2022-08-21T03:22:57;2.17;;;0.65;;
27015;SDS011;14557;0.000;0.000;2022-08-21T03:25:24;2.72;;;0.93;;
27015;SDS011;14557;0.000;0.000;2022-08-21T03:27:51;4.15;;;0.95;;
27015;SDS011;14557;0.000;0.000;2022-08-21T03:30:18;2.70;;;0.80;;
27015;SDS011;14557;0.000;0.000;2022-08-21T03:32:46;2.03;;;0.60;;
27015;SDS011;14557;0.000;0.000;2022-08-21T03:35:13;2.63;;;0.90;;
27015;SDS011;14557;0.000;0.000;2022-08-21T03:37:39;2.63;;;0.80;;
27015;SDS011;14557;0.000;0.000;2022-08-21T03:40:06;2.25;;;0.80;;
27015;SDS011;14557;0.000;0.000;2022-08-21T03:42:33;1.20;;;0.45;;
27015;SDS011;14557;0.000;0.000;2022-08-21T03:44:59;2.47;;;0.57;;
27015;SDS011;14557;0.000;0.000;2022-08-21T03:47:25;1.67;;;0.63;;
27015;SDS011;14557;0.000;0.000;2022-08-21T03:49:51;1.50;;;0.57;;
27015;SDS011;14557;0.000;0.000;2022-08-21T03:52:17;2.58;;;0.80;;
27015;SDS011;14557;0.000;0.000;2022-08-21T03:54:44;2.28;;;0.60;;
27015;SDS011;14557;0.000;0.000;2022-08-21T03:57:10;2.63;;;1.08;;
27015;SDS011;14557;0.000;0.000;2022-08-21T03:59:36;3.47;;;0.90;;
27015;SDS011;14557;0.000;0.000;2022-08-21T04:02:04;2.17;;;0.63;;
27015;SDS011;14557;0.000;0.000;2022-08-21T04:04:32;2.67;;;0.60;;
27015;SDS011;14557;0.000;0.000;2022-08-21T04:06:59;2.47;;;0.70;;
27015;SDS011;14557;0.000;0.000;2022-08-21T04:09:25;2.17;;;0.60;;
27015;SDS011;14557;0.000;0.000;2022-08-21T04:11:51;2.35;;;0.50;;
27015;SDS011;14557;0.000;0.000;2022-08-21T04:14:17;2.70;;;0.70;;
27015;SDS011;14557;0.000;0.000;2022-08-21T04:16:43;2.45;;;0.65;;
27015;SDS011;14557;0.000;0.000;2022-08-21T04:19:09;2.42;;;0.70;;
27015;SDS011;14557;0.000;0.000;2022-08-21T04:21:37;2.00;;;0.45;;
27015;SDS011;14557;0.000;0.000;2022-08-21T04:24:04;2.65;;;0.70;;
27015;SDS011;14557;0.000;0.000;2022-08-21T04:28:56;2.22;;;0.50;;
27015;SDS011;14557;0.000;0.000;2022-08-21T04:31:23;4.10;;;0.80;;
27015;SDS011;14557;0.000;0.000;2022-08-21T04:33:50;3.17;;;0.88;;
27015;SDS011;14557;0.000;0.000;2022-08-21T04:36:16;2.88;;;0.60;;
27015;SDS011;14557;0.000;0.000;2022-08-21T04:38:42;1.70;;;0.55;;
27015;SDS011;14557;0.000;0.000;2022-08-21T04:41:08;1.90;;;0.50;;
27015;SDS011;14557;0.000;0.000;2022-08-21T04:43:34;1.67;;;0.60;;
27015;SDS011;14557;0.000;0.000;2022-08-21T04:46:00;2.80;;;0.60;;
27015;SDS011;14557;0.000;0.000;2022-08-21T04:48:26;2.00;;;0.65;;
27015;SDS011;14557;0.000;0.000;2022-08-21T04:51:03;3.05;;;0.80;;
27015;SDS011;14557;0.000;0.000;2022-08-21T04:53:43;2.30;;;0.65;;
27015;SDS011;14557;0.000;0.000;2022-08-21T04:56:19;1.73;;;0.65;;
27015;SDS011;14557;0.000;0.000;2022-08-21T04:58:52;1.63;;;0.50;;
27015;SDS011;14557;0.000;0.000;2022-08-21T05:01:21;3.38;;;0.88;;
27015;SDS011;14557;0.000;0.000;2022-08-21T05:03:50;2.28;;;0.60;;
27015;SDS011;14557;0.000;0.000;2022-08-21T05:06:20;1.85;;;0.60;;
27015;SDS011;14557;0.000;0.000;2022-08-21T05:08:47;2.15;;;0.82;;
27015;SDS011;14557;0.000;0.000;2022-08-21T05:11:15;2.72;;;0.70;;
27015;SDS011;14557;0.000;0.000;2022-08-21T05:13:41;2.35;;;0.70;;
27015;SDS011;14557;0.000;0.000;2022-08-21T05:16:07;1.65;;;0.63;;
27015;SDS011;14557;0.000;0.000;2022-08-21T05:18:33;2.65;;;0.70;;
27015;SDS011;14557;0.000;0.000;2022-08-21T05:20:59;2.20;;;0.60;;
27015;SDS011;14557;0.000;0.000;2022-08-21T05:23:25;2.58;;;0.80;;
27015;SDS011;14557;0.000;0.000;2022-08-21T05:25:51;3.42;;;0.68;;
27015;SDS011;14557;0.000;0.000;2022-08-21T05:28:18;4.93;;;0.95;;
27015;SDS011;14557;0.000;0.000;2022-08-21T05:30:44;2.95;;;0.73;;
27015;SDS011;14557;0.000;0.000;2022-08-21T05:33:10;1.85;;;0.50;;
27015;SDS011;14557;0.000;0.000;2022-08-21T05:35:37;1.15;;;0.50;;
27015;SDS011;14557;0.000;0.000;2022-08-21T05:38:03;3.50;;;0.95;;
27015;SDS011;14557;0.000;0.000;2022-08-21T05:40:29;2.42;;;0.75;;
27015;SDS011;14557;0.000;0.000;2022-08-21T05:42:56;1.77;;;0.60;;
27015;SDS011;14557;0.000;0.000;2022-08-21T05:45:24;3.17;;;0.70;;
27015;SDS011;14557;0.000;0.000;2022-08-21T05:47:52;2.80;;;0.52;;
27015;SDS011;14557;0.000;0.000;2022-08-21T05:50:18;2.17;;;0.70;;
27015;SDS011;14557;0.000;0.000;2022-08-21T05:52:44;2.83;;;0.80;;
27015;SDS011;14557;0.000;0.000;2022-08-21T05:55:09;2.25;;;0.57;;
27015;SDS011;14557;0.000;0.000;2022-08-21T05:57:35;1.92;;;0.60;;
27015;SDS011;14557;0.000;0.000;2022-08-21T06:00:02;2.85;;;0.70;;
27015;SDS011;14557;0.000;0.000;2022-08-21T06:02:29;2.95;;;0.63;;
27015;SDS011;14557;0.000;0.000;2022-08-21T06:04:56;2.42;;;0.70;;
27015;SDS011;14557;0.000;0.000;2022-08-21T06:07:22;2.28;;;0.80;;
27015;SDS011;14557;0.000;0.000;2022-08-21T06:09:48;1.77;;;0.63;;
27015;SDS011;14557;0.000;0.000;2022-08-21T06:12:13;2.40;;;0.60;;
27015;SDS011;14557;0.000;0.000;2022-08-21T06:14:40;2.22;;;0.45;;
27015;SDS011;14557;0.000;0.000;2022-08-21T06:19:34;1.65;;;0.50;;
27015;SDS011;14557;0.000;0.000;2022-08-21T06:22:00;2.75;;;0.70;;
27015;SDS011;14557;0.000;0.000;2022-08-21T06:24:26;2.42;;;0.70;;
27015;SDS011;14557;0.000;0.000;2022-08-21T06:26:52;3.38;;;1.00;;
27015;SDS011;14557;0.000;0.000;2022-08-21T06:29:18;1.98;;;0.57;;
27015;SDS011;14557;0.000;0.000;2022-08-21T06:31:45;3.17;;;0.77;;
27015;SDS011;14557;0.000;0.000;2022-08-21T06:36:38;2.78;;;0.70;;
27015;SDS011;14557;0.000;0.000;2022-08-21T06:39:04;1.95;;;0.65;;
27015;SDS011;14557;0.000;0.000;2022-08-21T06:41:30;2.53;;;0.98;;
27015;SDS011;14557;0.000;0.000;2022-08-21T06:43:56;1.98;;;0.50;;
27015;SDS011;14557;0.000;0.000;2022-08-21T06:46:26;3.00;;;0.70;;
27015;SDS011;14557;0.000;0.000;2022-08-21T06:48:54;2.70;;;0.90;;
27015;SDS011;14557;0.000;0.000;2022-08-21T06:51:20;2.97;;;1.07;;
27015;SDS011;14557;0.000;0.000;2022-08-21T06:53:47;3.50;;;1.20;;
27015;SDS011;14557;0.000;0.000;2022-08-21T06:56:13;2.67;;;0.77;;
27015;SDS011;14557;0.000;0.000;2022-08-21T06:58:39;2.67;;;0.80;;
27015;SDS011;14557;0.000;0.000;2022-08-21T07:01:04;3.00;;;0.75;;
27015;SDS011;14557;0.000;0.000;2022-08-21T07:03:32;1.75;;;0.70;;
27015;SDS011;14557;0.000;0.000;2022-08-21T07:06:00;3.15;;;1.05;;
27015;SDS011;14557;0.000;0.000;2022-08-21T07:08:26;2.33;;;0.60;;
27015;SDS011;14557;0.000;0.000;2022-08-21T07:10:53;1.70;;;0.57;;
27015;SDS011;14557;0.000;0.000;2022-08-21T07:13:22;1.70;;;0.57;;
27015;SDS011;14557;0.000;0.000;2022-08-21T07:15:48;2.47;;;0.90;;
27015;SDS011;14557;0.000;0.000;2022-08-21T07:18:13;3.25;;;0.82;;
27015;SDS011;14557;0.000;0.000;2022-08-21T07:20:40;4.22;;;0.80;;
27015;SDS011;14557;0.000;0.000;2022-08-21T07:23:12;2.78;;;0.60;;
27015;SDS011;14557;0.000;0.000;2022-08-21T07:26:00;3.40;;;0.70;;
27015;SDS011;14557;0.000;0.000;2022-08-21T07:28:26;3.30;;;0.93;;
27015;SDS011;14557;0.000;0.000;2022-08-21T07:30:53;2.47;;;0.80;;
27015;SDS011;14557;0.000;0.000;2022-08-21T07:33:21;2.72;;;0.80;;
27015;SDS011;14557;0.000;0.000;2022-08-21T07:35:48;2.40;;;0.65;;
27015;SDS011;14557;0.000;0.000;2022-08-21T07:38:14;1.92;;;0.60;;
27015;SDS011;14557;0.000;0.000;2022-08-21T07:40:40;2.10;;;0.65;;
27015;SDS011;14557;0.000;0.000;2022-08-21T07:43:06;2.60;;;1.02;;
27015;SDS011;14557;0.000;0.000;2022-08-21T07:45:32;3.40;;;0.82;;
27015;SDS011;14557;0.000;0.000;2022-08-21T07:47:57;2.95;;;0.90;;
27015;SDS011;14557;0.000;0.000;2022-08-21T07:50:23;3.47;;;0.85;;
27015;SDS011;14557;0.000;0.000;2022-08-21T07:52:50;2.90;;;0.90;;
27015;SDS011;14557;0.000;0.000;2022-08-21T07:55:16;1.65;;;0.60;;
27015;SDS011;14557;0.000;0.000;2022-08-21T07:57:44;1.80;;;0.70;;
27015;SDS011;14557;0.000;0.000;2022-08-21T08:00:12;3.08;;;0.90;;
27015;SDS011;14557;0.000;0.000;2022-08-21T08:02:40;1.98;;;0.80;;
27015;SDS011;14557;0.000;0.000;2022-08-21T08:05:07;3.75;;;0.80;;
27015;SDS011;14557;0.000;0.000;2022-08-21T08:07:36;5.32;;;0.82;;
27015;SDS011;14557;0.000;0.000;2022-08-21T08:10:03;2.47;;;0.80;;
27015;SDS011;14557;0.000;0.000;2022-08-21T08:12:32;3.60;;;1.23;;
27015;SDS011;14557;0.000;0.000;2022-08-21T08:14:59;3.30;;;0.55;;
27015;SDS011;14557;0.000;0.000;2022-08-21T08:17:26;2.45;;;0.90;;
27015;SDS011;14557;0.000;0.000;2022-08-21T08:19:52;3.22;;;0.68;;
27015;SDS011;14557;0.000;0.000;2022-08-21T08:22:19;3.87;;;1.07;;
27015;SDS011;14557;0.000;0.000;2022-08-21T08:24:49;1.95;;;0.63;;
27015;SDS011;14557;0.000;0.000;2022-08-21T08:27:16;3.15;;;1.05;;
27015;SDS011;14557;0.000;0.000;2022-08-21T08:29:42;2.83;;;0.80;;
27015;SDS011;14557;0.000;0.000;2022-08-21T08:32:09;2.15;;;0.80;;
27015;SDS011;14557;0.000;0.000;2022-08-21T08:34:35;3.00;;;0.90;;
27015;SDS011;14557;0.000;0.000;2022-08-21T08:37:01;3.33;;;1.20;;
27015;SDS011;14557;0.000;0.000;2022-08-21T08:39:28;2.78;;;0.95;;
27015;SDS011;14557;0.000;0.000;2022-08-21T08:41:59;5.07;;;0.65;;
27015;SDS011;14557;0.000;0.000;2022-08-21T08:44:27;5.20;;;1.55;;
27015;SDS011;14557;0.000;0.000;2022-08-21T08:46:53;4.13;;;0.80;;
27015;SDS011;14557;0.000;0.000;2022-08-21T08:49:23;2.50;;;0.88;;
27015;SDS011;14557;0.000;0.000;2022-08-21T08:54:45;3.72;;;0.88;;
27015;SDS011;14557;0.000;0.000;2022-08-21T08:57:17;3.40;;;0.88;;
27015;SDS011;14557;0.000;0.000;2022-08-21T08:59:48;2.72;;;0.82;;
27015;SDS011;14557;0.000;0.000;2022-08-21T09:02:17;3.67;;;0.85;;
27015;SDS011;14557;0.000;0.000;2022-08-21T09:04:45;3.78;;;0.90;;
27015;SDS011;14557;0.000;0.000;2022-08-21T09:07:16;4.00;;;0.88;;
27015;SDS011;14557;0.000;0.000;2022-08-21T09:15:05;2.45;;;1.05;;
27015;SDS011;14557;0.000;0.000;2022-08-21T09:26:02;3.70;;;1.20;;
27015;SDS011;14557;0.000;0.000;2022-08-21T09:28:37;4.43;;;1.40;;
27015;SDS011;14557;0.000;0.000;2022-08-21T09:31:05;3.72;;;1.58;;
27015;SDS011;14557;0.000;0.000;2022-08-21T09:33:33;3.50;;;1.13;;
27015;SDS011;14557;0.000;0.000;2022-08-21T09:35:59;2.35;;;0.90;;
27015;SDS011;14557;0.000;0.000;2022-08-21T09:38:35;4.75;;;0.90;;
27015;SDS011;14557;0.000;0.000;2022-08-21T09:41:06;16.95;;;5.78;;
27015;SDS011;14557;0.000;0.000;2022-08-21T09:43:34;5.75;;;1.92;;
27015;SDS011;14557;0.000;0.000;2022-08-21T09:46:19;5.75;;;1.50;;
27015;SDS011;14557;0.000;0.000;2022-08-21T09:48:47;3.70;;;1.55;;
27015;SDS011;14557;0.000;0.000;2022-08-21T09:56:53;5.15;;;0.98;;
27015;SDS011;14557;0.000;0.000;2022-08-21T09:59:41;3.00;;;0.90;;
27015;SDS011;14557;0.000;0.000;2022-08-21T10:04:51;1.73;;;0.80;;
27015;SDS011;14557;0.000;0.000;2022-08-21T10:07:20;3.03;;;0.70;;
27015;SDS011;14557;0.000;0.000;2022-08-21T10:09:57;3.05;;;0.88;;
27015;SDS011;14557;0.000;0.000;2022-08-21T10:12:32;1.83;;;0.90;;
27015;SDS011;14557;0.000;0.000;2022-08-21T10:15:22;4.28;;;1.05;;
27015;SDS011;14557;0.000;0.000;2022-08-21T10:18:33;2.40;;;0.75;;
27015;SDS011;14557;0.000;0.000;2022-08-21T10:21:05;4.85;;;0.80;;
27015;SDS011;14557;0.000;0.000;2022-08-21T10:32:02;2.85;;;1.05;;
27015;SDS011;14557;0.000;0.000;2022-08-21T10:46:02;1.45;;;0.63;;
27015;SDS011;14557;0.000;0.000;2022-08-21T10:48:37;3.10;;;0.85;;
27015;SDS011;14557;0.000;0.000;2022-08-21T10:56:36;2.47;;;0.75;;
27015;SDS011;14557;0.000;0.000;2022-08-21T10:59:25;3.40;;;0.90;;
27015;SDS011;14557;0.000;0.000;2022-08-21T11:02:03;3.38;;;1.13;;
27015;SDS011;14557;0.000;0.000;2022-08-21T11:04:58;3.03;;;1.10;;
27015;SDS011;14557;0.000;0.000;2022-08-21T11:07:32;3.60;;;0.95;;
27015;SDS011;14557;0.000;0.000;2022-08-21T11:10:13;4.93;;;2.05;;
27015;SDS011;14557;0.000;0.000;2022-08-21T11:13:11;2.05;;;0.73;;
27015;SDS011;14557;0.000;0.000;2022-08-21T11:15:56;2.75;;;1.00;;
27015;SDS011;14557;0.000;0.000;2022-08-21T11:20:56;4.05;;;1.70;;
27015;SDS011;14557;0.000;0.000;2022-08-21T11:29:31;8.88;;;6.55;;
27015;SDS011;14557;0.000;0.000;2022-08-21T11:32:15;14.80;;;10.15;;
27015;SDS011;14557;0.000;0.000;2022-08-21T11:38:03;9.90;;;4.13;;
27015;SDS011;14557;0.000;0.000;2022-08-21T11:40:47;5.38;;;2.50;;
27015;SDS011;14557;0.000;0.000;2022-08-21T11:43:37;7.70;;;1.80;;
27015;SDS011;14557;0.000;0.000;2022-08-21T11:51:13;4.78;;;1.08;;
27015;SDS011;14557;0.000;0.000;2022-08-21T11:56:40;2.90;;;1.10;;
27015;SDS011;14557;0.000;0.000;2022-08-21T12:02:10;1.98;;;0.80;;
27015;SDS011;14557;0.000;0.000;2022-08-21T12:05:01;4.13;;;1.25;;
27015;SDS011;14557;0.000;0.000;2022-08-21T12:10:06;2.42;;;0.80;;
27015;SDS011;14557;0.000;0.000;2022-08-21T12:12:35;3.70;;;0.90;;
27015;SDS011;14557;0.000;0.000;2022-08-21T12:15:25;1.70;;;0.77;;
27015;SDS011;14557;0.000;0.000;2022-08-21T12:17:55;5.53;;;1.60;;
27015;SDS011;14557;0.000;0.000;2022-08-21T12:25:44;7.47;;;1.65;;
27015;SDS011;14557;0.000;0.000;2022-08-21T12:28:23;11.55;;;2.47;;
27015;SDS011;14557;0.000;0.000;2022-08-21T12:30:50;5.00;;;2.00;;
27015;SDS011;14557;0.000;0.000;2022-08-21T12:33:22;5.43;;;1.30;;
27015;SDS011;14557;0.000;0.000;2022-08-21T12:35:52;15.65;;;4.47;;
27015;SDS011;14557;0.000;0.000;2022-08-21T12:38:28;5.18;;;2.10;;
27015;SDS011;14557;0.000;0.000;2022-08-21T12:40:59;4.95;;;1.30;;
27015;SDS011;14557;0.000;0.000;2022-08-21T12:43:28;2.63;;;1.10;;
27015;SDS011;14557;0.000;0.000;2022-08-21T12:46:03;5.90;;;1.48;;
27015;SDS011;14557;0.000;0.000;2022-08-21T12:53:45;4.30;;;1.25;;
27015;SDS011;14557;0.000;0.000;2022-08-21T12:56:16;1.83;;;0.88;;
27015;SDS011;14557;0.000;0.000;2022-08-21T12:58:49;3.00;;;1.00;;
27015;SDS011;14557;0.000;0.000;2022-08-21T13:01:33;3.35;;;1.05;;
27015;SDS011;14557;0.000;0.000;2022-08-21T13:04:02;2.25;;;0.90;;
27015;SDS011;14557;0.000;0.000;2022-08-21T13:06:36;4.13;;;1.17;;
27015;SDS011;14557;0.000;0.000;2022-08-21T13:09:05;2.50;;;0.70;;
27015;SDS011;14557;0.000;0.000;2022-08-21T13:11:34;4.13;;;0.90;;
27015;SDS011;14557;0.000;0.000;2022-08-21T13:14:01;3.60;;;0.80;;
27015;SDS011;14557;0.000;0.000;2022-08-21T13:16:29;3.90;;;0.70;;
27015;SDS011;14557;0.000;0.000;2022-08-21T13:18:56;3.33;;;1.08;;
27015;SDS011;14557;0.000;0.000;2022-08-21T13:24:20;3.08;;;0.80;;
27015;SDS011;14557;0.000;0.000;2022-08-21T13:26:50;8.93;;;1.08;;
27015;SDS011;14557;0.000;0.000;2022-08-21T13:29:18;3.72;;;0.93;;
27015;SDS011;14557;0.000;0.000;2022-08-21T13:31:55;4.55;;;0.82;;
27015;SDS011;14557;0.000;0.000;2022-08-21T13:34:29;3.65;;;0.90;;
27015;SDS011;14557;0.000;0.000;2022-08-21T13:37:03;4.28;;;0.77;;
27015;SDS011;14557;0.000;0.000;2022-08-21T13:39:31;4.63;;;0.90;;
27015;SDS011;14557;0.000;0.000;2022-08-21T13:41:58;2.80;;;0.73;;
27015;SDS011;14557;0.000;0.000;2022-08-21T13:47:00;3.78;;;0.80;;
27015;SDS011;14557;0.000;0.000;2022-08-21T13:49:33;3.78;;;0.80;;
27015;SDS011;14557;0.000;0.000;2022-08-21T13:52:04;5.43;;;0.80;;
27015;SDS011;14557;0.000;0.000;2022-08-21T13:54:39;3.85;;;1.00;;
27015;SDS011;14557;0.000;0.000;2022-08-21T13:57:16;2.03;;;0.80;;
27015;SDS011;14557;0.000;0.000;2022-08-21T13:59:43;2.92;;;0.90;;
27015;SDS011;14557;0.000;0.000;2022-08-21T14:02:13;4.95;;;1.20;;
27015;SDS011;14557;0.000;0.000;2022-08-21T14:04:56;3.33;;;1.00;;
27015;SDS011;14557;0.000;0.000;2022-08-21T14:07:32;4.80;;;1.17;;
27015;SDS011;14557;0.000;0.000;2022-08-21T14:10:04;2.40;;;0.95;;
27015;SDS011;14557;0.000;0.000;2022-08-21T14:12:33;1.90;;;0.80;;
27015;SDS011;14557;0.000;0.000;2022-08-21T14:15:05;3.00;;;0.90;;
27015;SDS011;14557;0.000;0.000;2022-08-21T14:17:33;4.03;;;1.10;;
27015;SDS011;14557;0.000;0.000;2022-08-21T14:20:02;4.68;;;1.20;;
27015;SDS011;14557;0.000;0.000;2022-08-21T14:22:32;3.05;;;0.73;;
27015;SDS011;14557;0.000;0.000;2022-08-21T14:27:53;3.88;;;1.15;;
27015;SDS011;14557;0.000;0.000;2022-08-21T14:30:28;2.97;;;1.10;;
27015;SDS011;14557;0.000;0.000;2022-08-21T14:32:59;3.55;;;0.90;;
27015;SDS011;14557;0.000;0.000;2022-08-21T14:35:26;2.92;;;0.70;;
27015;SDS011;14557;0.000;0.000;2022-08-21T14:37:52;2.95;;;1.10;;
27015;SDS011;14557;0.000;0.000;2022-08-21T14:40:19;2.70;;;1.23;;
27015;SDS011;14557;0.000;0.000;2022-08-21T14:42:47;4.45;;;1.13;;
27015;SDS011;14557;0.000;0.000;2022-08-21T14:47:46;2.58;;;1.00;;
27015;SDS011;14557;0.000;0.000;2022-08-21T14:50:12;4.65;;;1.00;;
27015;SDS011;14557;0.000;0.000;2022-08-21T14:52:38;4.10;;;1.17;;
27015;SDS011;14557;0.000;0.000;2022-08-21T14:55:06;3.45;;;0.98;;
27015;SDS011;14557;0.000;0.000;2022-08-21T14:57:35;1.50;;;0.77;;
27015;SDS011;14557;0.000;0.000;2022-08-21T15:00:01;2.15;;;1.00;;
27015;SDS011;14557;0.000;0.000;2022-08-21T15:02:29;3.63;;;0.90;;
27015;SDS011;14557;0.000;0.000;2022-08-21T15:04:55;2.80;;;0.88;;
27015;SDS011;14557;0.000;0.000;2022-08-21T15:07:21;5.65;;;2.00;;
27015;SDS011;14557;0.000;0.000;2022-08-21T15:09:47;7.32;;;4.38;;
27015;SDS011;14557;0.000;0.000;2022-08-21T15:12:13;8.38;;;7.13;;
27015;SDS011;14557;0.000;0.000;2022-08-21T15:14:40;8.30;;;6.22;;
27015;SDS011;14557;0.000;0.000;2022-08-21T15:17:06;12.18;;;7.63;;
27015;SDS011;14557;0.000;0.000;2022-08-21T15:19:34;9.95;;;5.78;;
27015;SDS011;14557;0.000;0.000;2022-08-21T15:22:00;10.10;;;6.82;;
27015;SDS011;14557;0.000;0.000;2022-08-21T15:24:26;7.68;;;5.63;;
27015;SDS011;14557;0.000;0.000;2022-08-21T15:26:52;12.77;;;6.60;;
27015;SDS011;14557;0.000;0.000;2022-08-21T15:29:19;7.28;;;3.78;;
27015;SDS011;14557;0.000;0.000;2022-08-21T15:31:54;3.05;;;1.88;;
27015;SDS011;14557;0.000;0.000;2022-08-21T15:34:39;4.15;;;1.80;;
27015;SDS011;14557;0.000;0.000;2022-08-21T15:37:05;6.55;;;1.92;;
27015;SDS011;14557;0.000;0.000;2022-08-21T15:39:32;4.97;;;1.90;;
27015;SDS011;14557;0.000;0.000;2022-08-21T15:41:59;4.13;;;1.42;;
27015;SDS011;14557;0.000;0.000;2022-08-21T15:44:25;5.05;;;1.42;;
27015;SDS011;14557;0.000;0.000;2022-08-21T15:46:52;3.65;;;1.30;;
27015;SDS011;14557;0.000;0.000;2022-08-21T15:49:18;3.92;;;1.02;;
27015;SDS011;14557;0.000;0.000;2022-08-21T15:51:43;3.72;;;1.00;;
27015;SDS011;14557;0.000;0.000;2022-08-21T15:54:09;3.40;;;1.15;;
27015;SDS011;14557;0.000;0.000;2022-08-21T15:56:36;4.05;;;1.00;;
27015;SDS011;14557;0.000;0.000;2022-08-21T15:59:07;2.90;;;0.90;;
27015;SDS011;14557;0.000;0.000;2022-08-21T16:01:37;5.82;;;1.17;;
27015;SDS011;14557;0.000;0.000;2022-08-21T16:04:04;3.88;;;1.10;;
27015;SDS011;14557;0.000;0.000;2022-08-21T16:06:31;3.25;;;1.02;;
27015;SDS011;14557;0.000;0.000;2022-08-21T16:08:57;3.75;;;1.20;;
27015;SDS011;14557;0.000;0.000;2022-08-21T16:11:23;5.93;;;1.58;;
27015;SDS011;14557;0.000;0.000;2022-08-21T16:13:49;3.80;;;0.98;;
27015;SDS011;14557;0.000;0.000;2022-08-21T16:16:18;2.65;;;0.95;;
27015;SDS011;14557;0.000;0.000;2022-08-21T16:18:48;5.82;;;1.38;;
27015;SDS011;14557;0.000;0.000;2022-08-21T16:21:15;3.42;;;1.30;;
27015;SDS011;14557;0.000;0.000;2022-08-21T16:23:41;3.25;;;1.35;;
27015;SDS011;14557;0.000;0.000;2022-08-21T16:26:08;3.08;;;1.10;;
27015;SDS011;14557;0.000;0.000;2022-08-21T16:28:36;3.67;;;1.42;;
27015;SDS011;14557;0.000;0.000;2022-08-21T16:31:03;3.83;;;1.08;;
27015;SDS011;14557;0.000;0.000;2022-08-21T16:33:32;6.93;;;1.52;;
27015;SDS011;14557;0.000;0.000;2022-08-21T16:36:05;5.82;;;1.83;;
27015;SDS011;14557;0.000;0.000;2022-08-21T16:38:32;2.65;;;0.98;;
27015;SDS011;14557;0.000;0.000;2022-08-21T16:41:00;4.93;;;1.10;;
27015;SDS011;14557;0.000;0.000;2022-08-21T16:43:27;4.85;;;1.63;;
27015;SDS011;14557;0.000;0.000;2022-08-21T16:45:54;4.80;;;1.30;;
27015;SDS011;14557;0.000;0.000;2022-08-21T16:48:21;4.43;;;1.15;;
27015;SDS011;14557;0.000;0.000;2022-08-21T16:50:48;2.90;;;1.20;;
27015;SDS011;14557;0.000;0.000;2022-08-21T16:53:14;4.13;;;1.35;;
27015;SDS011;14557;0.000;0.000;2022-08-21T16:55:39;3.17;;;1.25;;
27015;SDS011;14557;0.000;0.000;2022-08-21T17:00:58;2.65;;;1.23;;
27015;SDS011;14557;0.000;0.000;2022-08-21T17:03:31;4.15;;;1.10;;
27015;SDS011;14557;0.000;0.000;2022-08-21T17:05:59;2.35;;;0.95;;
27015;SDS011;14557;0.000;0.000;2022-08-21T17:08:25;3.85;;;1.00;;